sensor_id;sensor_type;location;lat;lon;timestamp;pressure;altitude;pressure_sealevel;temperature;humidity
50364;BME280;36272;59.400;17.982;2022-09-25T00:04:41;101196.03;;;13.43;76.30
50364;BME280;36272;59.400;17.982;2022-09-25T00:09:43;101199.84;;;13.35;76.54
50364;BME280;36272;59.400;17.982;2022-09-25T00:14:48;101189.53;;;13.32;76.66
50364;BME280;36272;59.400;17.982;2022-09-25T00:19:50;101182.44;;;13.38;75.38
50364;BME280;36272;59.400;17.982;2022-09-25T00:24:51;101191.41;;;13.32;76.52
50364;BME280;36272;59.400;17.982;2022-09-25T00:29:53;101196.41;;;13.28;76.90
50364;BME280;36272;59.400;17.982;2022-09-25T00:34:55;101197.47;;;13.27;77.15
50364;BME280;36272;59.400;17.982;2022-09-25T00:39:56;101204.00;;;13.19;77.67
50364;BME280;36272;59.400;17.982;2022-09-25T00:45:00;101190.31;;;13.21;77.59
50364;BME280;36272;59.400;17.982;2022-09-25T00:50:09;101184.59;;;13.17;77.68
50364;BME280;36272;59.400;17.982;2022-09-25T00:55:12;101193.31;;;13.13;77.68
50364;BME280;36272;59.400;17.982;2022-09-25T01:00:15;101194.94;;;13.14;77.48
50364;BME280;36272;59.400;17.982;2022-09-25T01:05:19;101189.22;;;13.10;77.94
50364;BME280;36272;59.400;17.982;2022-09-25T01:10:21;101197.50;;;13.08;77.88
50364;BME280;36272;59.400;17.982;2022-09-25T01:22:04;101184.03;;;12.97;78.53
50364;BME280;36272;59.400;17.982;2022-09-25T01:37:19;101182.03;;;12.92;78.17
50364;BME280;36272;59.400;17.982;2022-09-25T01:42:28;101179.06;;;12.82;78.38
50364;BME280;36272;59.400;17.982;2022-09-25T01:47:35;101187.41;;;12.73;78.44
50364;BME280;36272;59.400;17.982;2022-09-25T01:52:46;101172.66;;;12.64;78.64
50364;BME280;36272;59.400;17.982;2022-09-25T01:57:55;101178.72;;;12.59;78.73
50364;BME280;36272;59.400;17.982;2022-09-25T02:03:12;101169.63;;;12.60;78.82
50364;BME280;36272;59.400;17.982;2022-09-25T02:08:21;101162.25;;;12.56;78.84
50364;BME280;36272;59.400;17.982;2022-09-25T02:13:28;101161.66;;;12.54;78.77
50364;BME280;36272;59.400;17.982;2022-09-25T02:18:34;101177.31;;;12.57;78.64
50364;BME280;36272;59.400;17.982;2022-09-25T02:24:17;101154.66;;;12.53;78.83
50364;BME280;36272;59.400;17.982;2022-09-25T02:29:20;101160.00;;;12.53;78.79
50364;BME280;36272;59.400;17.982;2022-09-25T02:34:23;101161.06;;;12.52;78.57
50364;BME280;36272;59.400;17.982;2022-09-25T02:39:28;101143.75;;;12.47;78.76
50364;BME280;36272;59.400;17.982;2022-09-25T03:00:18;101130.03;;;12.37;79.12
50364;BME280;36272;59.400;17.982;2022-09-25T03:05:24;101129.44;;;12.35;79.06
50364;BME280;36272;59.400;17.982;2022-09-25T03:10:27;101124.53;;;12.32;79.19
50364;BME280;36272;59.400;17.982;2022-09-25T03:15:29;101136.16;;;12.26;79.18
50364;BME280;36272;59.400;17.982;2022-09-25T03:20:31;101141.59;;;12.19;79.11
50364;BME280;36272;59.400;17.982;2022-09-25T03:25:32;101144.56;;;12.11;79.21
50364;BME280;36272;59.400;17.982;2022-09-25T03:30:34;101129.75;;;12.08;79.25
50364;BME280;36272;59.400;17.982;2022-09-25T03:35:36;101117.81;;;12.04;79.02
50364;BME280;36272;59.400;17.982;2022-09-25T03:40:38;101125.69;;;11.99;79.14
50364;BME280;36272;59.400;17.982;2022-09-25T03:45:40;101119.13;;;11.95;78.82
50364;BME280;36272;59.400;17.982;2022-09-25T03:50:42;101119.19;;;11.88;78.87
50364;BME280;36272;59.400;17.982;2022-09-25T03:55:44;101113.06;;;11.81;78.91
50364;BME280;36272;59.400;17.982;2022-09-25T04:00:49;101129.19;;;11.74;79.16
50364;BME280;36272;59.400;17.982;2022-09-25T04:05:50;101126.94;;;11.71;79.10
50364;BME280;36272;59.400;17.982;2022-09-25T04:10:56;101104.34;;;11.67;79.15
50364;BME280;36272;59.400;17.982;2022-09-25T04:16:02;101108.50;;;11.63;78.85
50364;BME280;36272;59.400;17.982;2022-09-25T04:21:07;101097.19;;;11.60;79.07
50364;BME280;36272;59.400;17.982;2022-09-25T04:26:08;101106.44;;;11.58;79.42
50364;BME280;36272;59.400;17.982;2022-09-25T04:31:10;101124.84;;;11.54;79.67
50364;BME280;36272;59.400;17.982;2022-09-25T04:36:13;101094.53;;;11.54;79.82
50364;BME280;36272;59.400;17.982;2022-09-25T04:41:15;101096.63;;;11.52;79.85
50364;BME280;36272;59.400;17.982;2022-09-25T04:46:19;101116.63;;;11.49;79.44
50364;BME280;36272;59.400;17.982;2022-09-25T04:51:21;101108.84;;;11.41;79.74
50364;BME280;36272;59.400;17.982;2022-09-25T04:56:23;101120.25;;;11.36;79.92
50364;BME280;36272;59.400;17.982;2022-09-25T05:01:25;101104.38;;;11.35;79.70
50364;BME280;36272;59.400;17.982;2022-09-25T05:06:27;101113.00;;;11.37;79.90
50364;BME280;36272;59.400;17.982;2022-09-25T05:11:29;101113.25;;;11.35;80.09
50364;BME280;36272;59.400;17.982;2022-09-25T05:16:31;101111.59;;;11.34;79.96
50364;BME280;36272;59.400;17.982;2022-09-25T05:21:33;101095.31;;;11.36;80.53
50364;BME280;36272;59.400;17.982;2022-09-25T05:26:35;101087.28;;;11.36;80.87
50364;BME280;36272;59.400;17.982;2022-09-25T05:31:38;101090.78;;;11.36;80.88
50364;BME280;36272;59.400;17.982;2022-09-25T05:36:39;101086.84;;;11.39;80.99
50364;BME280;36272;59.400;17.982;2022-09-25T05:41:41;101099.34;;;11.45;81.21
50364;BME280;36272;59.400;17.982;2022-09-25T05:46:42;101097.28;;;11.47;81.28
50364;BME280;36272;59.400;17.982;2022-09-25T05:51:44;101097.03;;;11.49;81.82
50364;BME280;36272;59.400;17.982;2022-09-25T05:56:46;101094.75;;;11.52;82.01
50364;BME280;36272;59.400;17.982;2022-09-25T06:01:47;101093.50;;;11.55;82.18
50364;BME280;36272;59.400;17.982;2022-09-25T06:06:49;101094.25;;;11.62;81.92
50364;BME280;36272;59.400;17.982;2022-09-25T06:11:51;101094.22;;;11.69;82.19
50364;BME280;36272;59.400;17.982;2022-09-25T06:16:53;101085.50;;;11.73;82.04
50364;BME280;36272;59.400;17.982;2022-09-25T06:21:55;101074.56;;;11.75;82.53
50364;BME280;36272;59.400;17.982;2022-09-25T06:26:58;101079.03;;;11.81;82.86
50364;BME280;36272;59.400;17.982;2022-09-25T06:31:59;101077.13;;;11.88;83.31
50364;BME280;36272;59.400;17.982;2022-09-25T06:37:01;101081.00;;;11.93;83.51
50364;BME280;36272;59.400;17.982;2022-09-25T06:42:03;101079.50;;;11.97;83.78
50364;BME280;36272;59.400;17.982;2022-09-25T06:47:05;101079.69;;;12.02;83.94
50364;BME280;36272;59.400;17.982;2022-09-25T06:52:07;101071.97;;;12.12;84.06
50364;BME280;36272;59.400;17.982;2022-09-25T06:57:08;101075.75;;;12.23;84.24
50364;BME280;36272;59.400;17.982;2022-09-25T07:02:10;101069.03;;;12.32;84.79
50364;BME280;36272;59.400;17.982;2022-09-25T07:07:31;101069.69;;;12.46;84.55
50364;BME280;36272;59.400;17.982;2022-09-25T07:12:32;101075.34;;;12.57;84.41
50364;BME280;36272;59.400;17.982;2022-09-25T07:17:34;101081.09;;;12.72;84.40
50364;BME280;36272;59.400;17.982;2022-09-25T07:22:36;101075.19;;;12.82;84.04
50364;BME280;36272;59.400;17.982;2022-09-25T07:27:38;101079.56;;;12.95;83.71
50364;BME280;36272;59.400;17.982;2022-09-25T07:32:42;101059.38;;;13.04;83.47
50364;BME280;36272;59.400;17.982;2022-09-25T07:37:45;101077.84;;;13.13;83.47
50364;BME280;36272;59.400;17.982;2022-09-25T07:42:47;101073.31;;;13.25;83.25
50364;BME280;36272;59.400;17.982;2022-09-25T07:47:48;101062.81;;;13.35;82.64
50364;BME280;36272;59.400;17.982;2022-09-25T07:52:51;101058.78;;;13.45;82.83
50364;BME280;36272;59.400;17.982;2022-09-25T07:57:55;101038.53;;;13.54;82.71
50364;BME280;36272;59.400;17.982;2022-09-25T08:02:58;101043.69;;;13.67;81.98
50364;BME280;36272;59.400;17.982;2022-09-25T08:08:00;101052.69;;;13.85;81.71
50364;BME280;36272;59.400;17.982;2022-09-25T08:13:01;101046.91;;;13.93;80.78
50364;BME280;36272;59.400;17.982;2022-09-25T08:18:03;101049.50;;;14.00;80.42
50364;BME280;36272;59.400;17.982;2022-09-25T08:23:05;101033.91;;;14.14;79.32
50364;BME280;36272;59.400;17.982;2022-09-25T08:28:07;101045.56;;;14.32;78.17
50364;BME280;36272;59.400;17.982;2022-09-25T08:33:10;101023.41;;;14.41;77.44
50364;BME280;36272;59.400;17.982;2022-09-25T08:38:14;101030.69;;;14.58;76.64
50364;BME280;36272;59.400;17.982;2022-09-25T08:43:21;101008.41;;;14.75;74.94
50364;BME280;36272;59.400;17.982;2022-09-25T08:48:40;101013.50;;;14.88;74.30
50364;BME280;36272;59.400;17.982;2022-09-25T08:54:03;101016.09;;;15.00;73.73
50364;BME280;36272;59.400;17.982;2022-09-25T08:59:14;101003.59;;;15.11;72.60
50364;BME280;36272;59.400;17.982;2022-09-25T09:09:38;100991.25;;;15.32;71.42
50364;BME280;36272;59.400;17.982;2022-09-25T09:14:44;100989.13;;;15.34;70.85
50364;BME280;36272;59.400;17.982;2022-09-25T09:19:58;100973.38;;;15.43;71.02
50364;BME280;36272;59.400;17.982;2022-09-25T09:25:31;100967.53;;;15.51;71.05
50364;BME280;36272;59.400;17.982;2022-09-25T09:52:17;100943.69;;;16.04;68.54
50364;BME280;36272;59.400;17.982;2022-09-25T09:57:24;100940.00;;;16.16;68.16
50364;BME280;36272;59.400;17.982;2022-09-25T10:07:54;100949.41;;;16.35;67.17
50364;BME280;36272;59.400;17.982;2022-09-25T10:12:56;100951.63;;;16.44;66.83
50364;BME280;36272;59.400;17.982;2022-09-25T10:18:02;100932.28;;;16.57;66.53
50364;BME280;36272;59.400;17.982;2022-09-25T10:23:05;100924.88;;;16.75;66.36
50364;BME280;36272;59.400;17.982;2022-09-25T10:34:31;100913.78;;;17.09;65.04
50364;BME280;36272;59.400;17.982;2022-09-25T10:39:35;100893.13;;;17.35;64.47
50364;BME280;36272;59.400;17.982;2022-09-25T10:44:39;100910.81;;;17.64;64.06
50364;BME280;36272;59.400;17.982;2022-09-25T10:49:46;100899.88;;;18.02;62.89
50364;BME280;36272;59.400;17.982;2022-09-25T11:00:23;100890.44;;;18.56;61.65
50364;BME280;36272;59.400;17.982;2022-09-25T11:05:49;100875.22;;;18.86;61.17
50364;BME280;36272;59.400;17.982;2022-09-25T11:10:57;100872.97;;;19.24;60.49
50364;BME280;36272;59.400;17.982;2022-09-25T11:16:00;100854.78;;;19.80;59.68
50364;BME280;36272;59.400;17.982;2022-09-25T11:21:18;100848.78;;;20.87;57.05
50364;BME280;36272;59.400;17.982;2022-09-25T11:26:26;100841.66;;;21.97;54.94
50364;BME280;36272;59.400;17.982;2022-09-25T11:36:43;100826.97;;;23.57;51.02
50364;BME280;36272;59.400;17.982;2022-09-25T11:42:10;100823.25;;;24.13;50.42
50364;BME280;36272;59.400;17.982;2022-09-25T11:47:26;100812.84;;;24.78;48.84
50364;BME280;36272;59.400;17.982;2022-09-25T12:25:14;100757.47;;;27.21;44.80
50364;BME280;36272;59.400;17.982;2022-09-25T12:30:21;100756.16;;;27.48;43.64
50364;BME280;36272;59.400;17.982;2022-09-25T12:46:26;100734.13;;;28.15;43.97
50364;BME280;36272;59.400;17.982;2022-09-25T12:51:37;100738.31;;;28.46;43.33
50364;BME280;36272;59.400;17.982;2022-09-25T12:56:56;100722.72;;;28.75;43.01
50364;BME280;36272;59.400;17.982;2022-09-25T13:07:35;100708.00;;;29.24;42.18
50364;BME280;36272;59.400;17.982;2022-09-25T13:12:39;100702.97;;;28.86;41.15
50364;BME280;36272;59.400;17.982;2022-09-25T13:17:40;100701.03;;;27.66;42.14
50364;BME280;36272;59.400;17.982;2022-09-25T13:22:43;100683.13;;;27.47;43.07
50364;BME280;36272;59.400;17.982;2022-09-25T13:27:45;100690.03;;;27.53;42.74
50364;BME280;36272;59.400;17.982;2022-09-25T13:32:48;100674.88;;;27.47;42.70
50364;BME280;36272;59.400;17.982;2022-09-25T13:37:54;100669.75;;;27.24;42.63
50364;BME280;36272;59.400;17.982;2022-09-25T14:17:31;100615.38;;;27.39;44.15
50364;BME280;36272;59.400;17.982;2022-09-25T14:28:57;100621.66;;;25.73;43.26
50364;BME280;36272;59.400;17.982;2022-09-25T14:58:42;100585.66;;;22.03;48.22
50364;BME280;36272;59.400;17.982;2022-09-25T15:03:53;100585.16;;;21.73;48.90
50364;BME280;36272;59.400;17.982;2022-09-25T15:08:57;100576.94;;;21.59;49.10
50364;BME280;36272;59.400;17.982;2022-09-25T15:14:16;100568.69;;;21.31;49.53
50364;BME280;36272;59.400;17.982;2022-09-25T15:19:23;100579.38;;;20.94;49.96
50364;BME280;36272;59.400;17.982;2022-09-25T15:24:29;100571.16;;;20.56;50.03
50364;BME280;36272;59.400;17.982;2022-09-25T15:29:35;100558.25;;;20.28;50.59
50364;BME280;36272;59.400;17.982;2022-09-25T15:34:37;100568.88;;;20.00;51.33
50364;BME280;36272;59.400;17.982;2022-09-25T15:39:40;100554.78;;;19.74;51.41
50364;BME280;36272;59.400;17.982;2022-09-25T15:44:43;100568.03;;;19.51;51.92
50364;BME280;36272;59.400;17.982;2022-09-25T15:49:45;100557.28;;;19.41;52.23
50364;BME280;36272;59.400;17.982;2022-09-25T15:54:46;100553.91;;;19.25;52.68
50364;BME280;36272;59.400;17.982;2022-09-25T15:59:50;100549.50;;;18.99;53.14
50364;BME280;36272;59.400;17.982;2022-09-25T16:05:15;100534.66;;;18.86;53.01
50364;BME280;36272;59.400;17.982;2022-09-25T16:20:42;100529.81;;;18.33;54.72
50364;BME280;36272;59.400;17.982;2022-09-25T16:25:43;100532.34;;;18.19;55.49
50364;BME280;36272;59.400;17.982;2022-09-25T16:31:07;100521.84;;;17.92;56.30
50364;BME280;36272;59.400;17.982;2022-09-25T16:36:11;100523.28;;;17.74;56.84
50364;BME280;36272;59.400;17.982;2022-09-25T16:47:35;100533.38;;;17.42;58.03
50364;BME280;36272;59.400;17.982;2022-09-25T16:52:37;100519.84;;;17.32;58.45
50364;BME280;36272;59.400;17.982;2022-09-25T16:57:41;100529.34;;;17.19;59.01
50364;BME280;36272;59.400;17.982;2022-09-25T17:02:44;100517.69;;;17.08;59.43
50364;BME280;36272;59.400;17.982;2022-09-25T17:07:48;100506.91;;;16.98;59.85
50364;BME280;36272;59.400;17.982;2022-09-25T17:12:51;100516.06;;;16.86;60.39
50364;BME280;36272;59.400;17.982;2022-09-25T17:17:57;100510.66;;;16.81;60.32
50364;BME280;36272;59.400;17.982;2022-09-25T17:23:00;100526.31;;;16.79;60.46
50364;BME280;36272;59.400;17.982;2022-09-25T17:28:06;100511.72;;;16.75;60.87
50364;BME280;36272;59.400;17.982;2022-09-25T17:33:14;100502.81;;;16.64;61.19
50364;BME280;36272;59.400;17.982;2022-09-25T17:38:16;100513.03;;;16.52;61.31
50364;BME280;36272;59.400;17.982;2022-09-25T17:43:18;100506.53;;;16.42;61.40
50364;BME280;36272;59.400;17.982;2022-09-25T17:48:23;100503.81;;;16.32;62.10
50364;BME280;36272;59.400;17.982;2022-09-25T17:53:30;100493.78;;;16.22;62.30
50364;BME280;36272;59.400;17.982;2022-09-25T17:58:32;100501.03;;;16.11;62.61
50364;BME280;36272;59.400;17.982;2022-09-25T18:03:33;100494.81;;;16.00;62.73
50364;BME280;36272;59.400;17.982;2022-09-25T18:08:35;100487.19;;;15.87;63.24
50364;BME280;36272;59.400;17.982;2022-09-25T18:13:37;100480.66;;;15.77;63.62
50364;BME280;36272;59.400;17.982;2022-09-25T18:18:39;100494.63;;;15.69;63.90
50364;BME280;36272;59.400;17.982;2022-09-25T18:24:00;100487.06;;;15.61;64.17
50364;BME280;36272;59.400;17.982;2022-09-25T18:29:02;100474.59;;;15.50;64.82
50364;BME280;36272;59.400;17.982;2022-09-25T18:34:03;100468.59;;;15.42;65.11
50364;BME280;36272;59.400;17.982;2022-09-25T18:39:05;100451.56;;;15.31;65.06
50364;BME280;36272;59.400;17.982;2022-09-25T18:44:07;100458.78;;;15.26;65.37
50364;BME280;36272;59.400;17.982;2022-09-25T18:49:08;100454.72;;;15.18;65.60
50364;BME280;36272;59.400;17.982;2022-09-25T18:54:12;100431.50;;;15.12;65.94
50364;BME280;36272;59.400;17.982;2022-09-25T18:59:17;100446.78;;;15.01;66.56
50364;BME280;36272;59.400;17.982;2022-09-25T19:04:19;100448.66;;;14.95;66.62
50364;BME280;36272;59.400;17.982;2022-09-25T19:09:21;100427.56;;;14.87;66.58
50364;BME280;36272;59.400;17.982;2022-09-25T19:14:55;100419.69;;;14.75;67.05
50364;BME280;36272;59.400;17.982;2022-09-25T19:27:09;100417.59;;;14.55;67.77
50364;BME280;36272;59.400;17.982;2022-09-25T19:32:14;100400.03;;;14.47;68.28
50364;BME280;36272;59.400;17.982;2022-09-25T19:37:26;100393.28;;;14.45;67.85
50364;BME280;36272;59.400;17.982;2022-09-25T19:42:54;100405.31;;;14.37;68.19
50364;BME280;36272;59.400;17.982;2022-09-25T20:00:51;100358.84;;;14.14;69.89
50364;BME280;36272;59.400;17.982;2022-09-25T20:06:38;100343.72;;;14.08;70.27
50364;BME280;36272;59.400;17.982;2022-09-25T20:24:03;100329.06;;;13.93;71.84
50364;BME280;36272;59.400;17.982;2022-09-25T20:29:41;100325.28;;;13.89;72.52
50364;BME280;36272;59.400;17.982;2022-09-25T20:34:46;100339.78;;;13.88;72.65
50364;BME280;36272;59.400;17.982;2022-09-25T20:39:47;100341.91;;;13.86;73.23
50364;BME280;36272;59.400;17.982;2022-09-25T20:44:49;100332.47;;;13.83;72.67
50364;BME280;36272;59.400;17.982;2022-09-25T20:49:51;100332.97;;;13.80;72.95
50364;BME280;36272;59.400;17.982;2022-09-25T20:54:53;100332.69;;;13.77;73.76
50364;BME280;36272;59.400;17.982;2022-09-25T20:59:56;100335.59;;;13.75;73.85
50364;BME280;36272;59.400;17.982;2022-09-25T21:04:58;100336.94;;;13.73;73.93
50364;BME280;36272;59.400;17.982;2022-09-25T21:09:59;100321.88;;;13.72;74.27
50364;BME280;36272;59.400;17.982;2022-09-25T21:15:01;100313.81;;;13.72;74.19
50364;BME280;36272;59.400;17.982;2022-09-25T21:20:03;100305.97;;;13.70;74.13
50364;BME280;36272;59.400;17.982;2022-09-25T21:25:05;100299.81;;;13.70;74.38
50364;BME280;36272;59.400;17.982;2022-09-25T21:30:07;100285.81;;;13.67;74.54
50364;BME280;36272;59.400;17.982;2022-09-25T21:35:09;100290.63;;;13.65;74.41
50364;BME280;36272;59.400;17.982;2022-09-25T21:40:13;100284.13;;;13.61;74.52
50364;BME280;36272;59.400;17.982;2022-09-25T21:45:15;100273.66;;;13.60;74.84
50364;BME280;36272;59.400;17.982;2022-09-25T21:50:16;100273.88;;;13.58;74.82
50364;BME280;36272;59.400;17.982;2022-09-25T21:55:18;100273.38;;;13.61;74.73
50364;BME280;36272;59.400;17.982;2022-09-25T22:00:20;100264.59;;;13.66;74.85
50364;BME280;36272;59.400;17.982;2022-09-25T22:05:22;100244.94;;;13.65;74.95
50364;BME280;36272;59.400;17.982;2022-09-25T22:10:24;100242.81;;;13.67;75.12
50364;BME280;36272;59.400;17.982;2022-09-25T22:15:25;100243.31;;;13.64;75.18
50364;BME280;36272;59.400;17.982;2022-09-25T22:20:27;100244.16;;;13.65;75.35
50364;BME280;36272;59.400;17.982;2022-09-25T22:25:28;100241.16;;;13.61;75.55
50364;BME280;36272;59.400;17.982;2022-09-25T22:30:30;100229.03;;;13.59;75.62
50364;BME280;36272;59.400;17.982;2022-09-25T22:35:32;100220.94;;;13.53;75.92
50364;BME280;36272;59.400;17.982;2022-09-25T22:40:38;100208.78;;;13.51;76.26
50364;BME280;36272;59.400;17.982;2022-09-25T22:45:47;100204.75;;;13.48;76.03
50364;BME280;36272;59.400;17.982;2022-09-25T22:51:10;100206.09;;;13.51;76.53
50364;BME280;36272;59.400;17.982;2022-09-25T22:56:20;100204.81;;;13.53;77.04
50364;BME280;36272;59.400;17.982;2022-09-25T23:01:23;100224.41;;;13.54;77.42
50364;BME280;36272;59.400;17.982;2022-09-25T23:06:27;100205.41;;;13.61;78.07
50364;BME280;36272;59.400;17.982;2022-09-25T23:11:29;100199.25;;;13.65;78.25
50364;BME280;36272;59.400;17.982;2022-09-25T23:16:31;100190.69;;;13.68;78.80
50364;BME280;36272;59.400;17.982;2022-09-25T23:21:33;100211.41;;;13.73;78.66
50364;BME280;36272;59.400;17.982;2022-09-25T23:26:35;100203.34;;;13.73;79.51
50364;BME280;36272;59.400;17.982;2022-09-25T23:31:37;100186.38;;;13.67;80.17
50364;BME280;36272;59.400;17.982;2022-09-25T23:36:38;100183.69;;;13.67;80.37
50364;BME280;36272;59.400;17.982;2022-09-25T23:41:40;100164.34;;;13.65;81.15
50364;BME280;36272;59.400;17.982;2022-09-25T23:46:42;100166.97;;;13.60;81.65
50364;BME280;36272;59.400;17.982;2022-09-25T23:51:46;100154.88;;;13.58;82.07
50364;BME280;36272;59.400;17.982;2022-09-25T23:56:48;100152.19;;;13.58;82.41
